• Join FlightAware (Why Join?)
  • Login
  • US Flag 
02:06AM EDT


 

Airport Tracker/Info


-or-


 

Live Flight TrackerFlight Track Log ✈ EGF3683 ✈ 17-Jul-2013 ✈ KORD - KXNA

Flight Track Log - Related Links

Times and Time Zones

All times are in EDT time to prevent confusion due to time zone crossing. See the EGF3683 flight status page for this flight to view local times or setup timezone preferences in your user account.

Time Position Orientation Groundspeed Altitude Reporting Facility
EDT Latitude Longitude Course Direction KTS MPH feet Rate Location/Type
10:47PM 41.9333 -87.9167 201° Southwest 183 211 3,100  Level Chicago TRACON
10:48PM 41.7670 -87.9998 206° Southwest  Level FlightAware Approximate
10:48PM 41.8667 -87.9333 191° South 254 292 5,800  Level Chicago TRACON
10:49PM 41.6623 -88.0488 203° Southwest  Level FlightAware Approximate
10:49PM 41.7833 -87.9667 197° South 286 329 8,200  Level Chicago TRACON
10:50PM 41.5574 -88.1004 197° South  Level FlightAware Approximate
10:50PM 41.7247 -87.9997 203° Southwest 289 333 10,200  Level Chicago Center
10:51PM 41.4501 -88.1433 197° South  Level FlightAware Approximate
10:51PM 41.6461 -88.0444 203° Southwest 307 353 12,800  Level Chicago Center
10:52PM 41.3507 -88.1830 201° Southwest  Level FlightAware Approximate
10:52PM 41.5664 -88.0892 203° Southwest 312 359 14,700  Level Chicago Center
10:53PM 41.4597 -88.1500 203° Southwest 365 420 16,200 1,320 Climbing Chicago Center
10:54PM 41.3617 -88.2008 201° Southwest 391 450 17,400 1,080 Climbing Chicago Center
10:55PM 41.2556 -88.2475 198° South 407 468 18,500 1,140 Climbing Chicago Center
10:56PM 41.1458 -88.2975 199° South 418 481 19,800 1,260 Climbing Chicago Center
10:57PM 41.0336 -88.3489 199° South 429 494 21,100 1,380 Climbing Chicago Center
10:58PM 40.8972 -88.4083 198° South 432 497 22,700 1,380 Climbing Chicago Center
10:59PM 40.8014 -88.5008 216° Southwest 432 497 24,000 1,260 Climbing Chicago Center
11:00PM 40.7161 -88.6153 226° Southwest 438 504 25,300 1,260 Climbing Chicago Center
11:01PM 40.6303 -88.7275 225° Southwest 438 504 26,600 1,260 Climbing Chicago Center
11:02PM 40.5442 -88.8408 225° Southwest 439 505 27,900 1,320 Climbing Chicago Center
11:03PM 40.4492 -88.9664 225° Southwest 438 504 29,300 1,320 Climbing Chicago Center
11:04PM 40.3625 -89.0803 225° Southwest 438 504 30,700 1,260 Climbing Chicago Center
11:05PM 40.2753 -89.1922 224° Southwest 437 503 32,000 1,260 Climbing Chicago Center
11:06PM 40.1894 -89.3036 225° Southwest 434 499 33,300 960 Climbing Chicago Center
11:07PM 40.1036 -89.4147 225° Southwest 433 498 34,000 300 Climbing Chicago Center
11:08PM 40.0133 -89.5311 225° Southwest 453 521 34,000  Level Chicago Center
11:09PM 39.9394 -89.6253 224° Southwest 459 528 34,000  Level Kansas City Center
11:10PM 39.8442 -89.7481 225° Southwest 474 545 34,000  Level Kansas City Center
11:11PM 39.7483 -89.8703 224° Southwest 480 552 34,000  Level Kansas City Center
11:12PM 39.6514 -89.9961 225° Southwest 474 545 34,000  Level Kansas City Center
11:13PM 39.5578 -90.1153 224° Southwest 474 545 34,000  Level Kansas City Center
11:14PM 39.4642 -90.2339 224° Southwest 473 544 34,000  Level Kansas City Center
11:15PM 39.3522 -90.3753 224° Southwest 473 544 34,000  Level Kansas City Center
11:16PM 39.2594 -90.4933 225° Southwest 472 543 34,000  Level Kansas City Center
11:17PM 39.1661 -90.6092 224° Southwest 470 541 34,000  Level Kansas City Center
11:18PM 39.0758 -90.7228 224° Southwest 464 534 34,000  Level Kansas City Center
11:19PM 38.9828 -90.8372 224° Southwest 466 536 34,000  Level Kansas City Center
11:20PM 38.8892 -90.9522 224° Southwest 469 540 34,000  Level Kansas City Center
11:21PM 38.7956 -91.0669 224° Southwest 469 540 34,000  Level Kansas City Center
11:22PM 38.7033 -91.1814 224° Southwest 467 537 34,000  Level Kansas City Center
11:23PM 38.5900 -91.3192 224° Southwest 469 540 34,000  Level Kansas City Center
11:24PM 38.5017 -91.4247 223° Southwest 471 542 34,000  Level Kansas City Center
11:25PM 38.4064 -91.5400 223° Southwest 472 543 34,000  Level Kansas City Center
11:26PM 38.3092 -91.6556 223° Southwest 476 548 34,000  Level Kansas City Center
11:27PM 38.2117 -91.7706 223° Southwest 476 548 34,000  Level Kansas City Center
11:28PM 38.1150 -91.8861 223° Southwest 472 543 34,000  Level Kansas City Center
11:29PM 37.9989 -92.0239 223° Southwest 471 542 34,000  Level Kansas City Center
11:30PM 37.9189 -92.1172 223° Southwest 472 543 34,000  Level Kansas City Center
11:31PM 37.8214 -92.2353 224° Southwest 483 556 34,000 -1,140 Level Kansas City Center
11:32PM 37.7075 -92.3683 223° Southwest 470 541 31,800 -2,160 Descending Kansas City Center
11:33PM 37.6044 -92.4900 223° Southwest 481 554 29,600 -2,100 Descending Kansas City Center
11:34PM 37.5064 -92.6056 223° Southwest 481 554 27,500 -2,100 Descending Kansas City Center
11:35PM 37.4150 -92.7139 223° Southwest 459 528 25,400 -2,100 Descending Kansas City Center
11:36PM 37.3256 -92.8136 222° Southwest 441 507 23,300 -2,100 Descending Kansas City Center
11:37PM 37.2361 -92.9167 223° Southwest 435 501 21,200 -2,100 Descending Kansas City Center
11:38PM 37.1467 -93.0208 223° Southwest 436 502 19,100 -1,980 Descending Kansas City Center
11:40PM 37.0583 -93.1225 223° Southwest 434 499 17,200 -1,980 Descending Kansas City Center
11:41PM 36.9767 -93.2175 223° Southwest 417 480 15,100 -1,380 Descending Kansas City Center
11:42PM 36.8997 -93.3039 222° Southwest 392 451 14,500 -1,140 Descending Kansas City Center
11:43PM 36.8292 -93.3894 224° Southwest 371 427 12,900 -1,560 Descending Kansas City Center
11:44PM 36.7558 -93.4850 226° Southwest 377 434 11,400 -1,440 Descending Kansas City Center
11:45PM 36.6797 -93.5794 225° Southwest 384 442 10,000 -720 Descending Kansas City Center
11:46PM 36.6042 -93.6989 232° Southwest 368 423 10,000 -420 Level Kansas City Center
11:47PM 36.5742 -93.7858 247° West 297 342 9,200 -1,080 Descending Kansas City Center
11:48PM 36.5444 -93.8700 246° West 270 311 7,900 -1,380 Descending Kansas City Center
11:49PM 36.5139 -93.9569 246° West 270 311 6,500 -1,260 Descending Kansas City Center
11:50PM 36.4825 -94.0431 246° West 272 313 5,400 -1,140 Descending Kansas City Center
11:51PM 36.4525 -94.1264 246° West 269 310 4,200 -1,140 Descending Kansas City Center
11:52PM 36.4242 -94.2064 246° West 262 302 3,100 -1,080 Descending Kansas City Center